»·PEaware :: N518XA KSBA-KSNA

N518XA :: KSBA-KSNA

FLIGHT INFORMATION

Flight Status: Arrived
Operator: Privately registered:
United States
More flights under this callsign
Pilot: Edward H. (2712)
Aircraft: BELL TEXTRON JET RANGER
(B06)
More flights by this aircraft type
Origin: KSBA Santa Barbara Mun
United States
Destination: KSNA John Wayne-Orange Co
United States
More flights between these airports :: More routes between these airports
Route: +
File this flight plan on PilotEdge
Remarks:
Altitude:
(Current/Filed)
0ft
Speed:
(Current/Filed)
0kts
Departed: 13-Dec-18 09:33 AM
Arrived: 13-Dec-18 10:38 AM
Distance/Time
Traveled:
108nm/1:05
Distance/Time
To Go:
Arrived

Flight Plot

Page will automatically refresh every two minutes.


Map Options




Map Legend


Flown Route
Filed Route
Departure Airport
Arrival Airport
Navaid (VOR, NDB)
Fix

Horizontal Profiles

Position Reports

Time Latitude Longitude Heading Altitude Ground
Speed
13-Dec-18 09:26 34.423059 -119.836037 77 11ft 0kts
13-Dec-18 09:27 34.423059 -119.836037 77 11ft 0kts
13-Dec-18 09:28 34.423059 -119.836037 77 11ft 0kts
13-Dec-18 09:29 34.423059 -119.836037 77 11ft 0kts
13-Dec-18 09:30 34.423059 -119.836037 77 11ft 0kts
13-Dec-18 09:32 34.423059 -119.836037 79 11ft 0kts
13-Dec-18 09:33 34.420619 -119.823243 93 333ft 103kts
13-Dec-18 09:34 34.421675 -119.809551 181 19ft 0kts
13-Dec-18 09:35 34.423059 -119.836038 76 11ft 0kts
13-Dec-18 09:36 34.423060 -119.836038 76 11ft 0kts
13-Dec-18 09:37 34.423060 -119.836038 76 11ft 0kts
13-Dec-18 09:38 34.423060 -119.836038 77 11ft 0kts
13-Dec-18 09:39 34.423057 -119.836036 87 11ft 0kts
13-Dec-18 09:40 34.423048 -119.836033 125 11ft 0kts
13-Dec-18 09:41 34.419853 -119.827548 108 237ft 84kts
13-Dec-18 09:42 34.415148 -119.795723 97 905ft 94kts
13-Dec-18 09:43 34.406077 -119.759017 110 1158ft 122kts
13-Dec-18 09:44 34.405687 -119.713439 82 1285ft 152kts
13-Dec-18 09:45 34.412375 -119.668516 76 1738ft 124kts
13-Dec-18 09:46 34.416046 -119.627754 94 2100ft 129kts
13-Dec-18 09:47 34.409817 -119.583451 100 2222ft 134kts
13-Dec-18 09:48 34.397019 -119.546933 117 2963ft 107kts
13-Dec-18 09:49 34.387599 -119.507935 100 2883ft 146kts
13-Dec-18 09:50 34.371859 -119.464110 112 2942ft 130kts
13-Dec-18 09:51 34.354748 -119.426679 125 3238ft 129kts
13-Dec-18 09:52 34.329836 -119.392391 130 3275ft 135kts
13-Dec-18 09:52 34.304072 -119.365941 129 2905ft 147kts
13-Dec-18 09:54 34.277177 -119.324461 120 2766ft 132kts
13-Dec-18 09:54 34.260091 -119.296218 124 2903ft 118kts
13-Dec-18 09:56 34.235051 -119.268843 139 3400ft 105kts
13-Dec-18 09:56 34.213775 -119.249514 132 3542ft 115kts
13-Dec-18 09:57 34.187962 -119.224088 134 3660ft 125kts
13-Dec-18 09:59 34.157055 -119.187044 123 3476ft 130kts
13-Dec-18 09:59 34.138757 -119.157648 121 3334ft 141kts
13-Dec-18 10:00 34.119118 -119.116376 111 3053ft 140kts
13-Dec-18 10:01 34.106071 -119.075329 101 3194ft 133kts
13-Dec-18 10:02 34.094664 -119.030935 108 3098ft 139kts
13-Dec-18 10:03 34.080813 -118.988136 106 3152ft 139kts
13-Dec-18 10:04 34.065760 -118.942732 115 2754ft 153kts
13-Dec-18 10:05 34.051123 -118.896989 98 2601ft 143kts
13-Dec-18 10:06 34.047383 -118.852949 91 2929ft 122kts
13-Dec-18 10:07 34.043460 -118.808380 90 2760ft 138kts
13-Dec-18 10:08 34.041238 -118.763163 87 2581ft 147kts
13-Dec-18 10:09 34.040944 -118.713916 90 2122ft 145kts
13-Dec-18 10:10 34.039871 -118.667281 83 1957ft 133kts
13-Dec-18 10:11 34.039774 -118.621799 87 1695ft 139kts
13-Dec-18 10:12 34.038316 -118.575502 90 1563ft 129kts
13-Dec-18 10:13 34.030526 -118.540312 121 2014ft 113kts
13-Dec-18 10:14 34.007406 -118.501570 126 987ft 159kts
13-Dec-18 10:15 33.977634 -118.467999 142 235ft 131kts
13-Dec-18 10:16 33.953567 -118.451150 152 117ft 74kts
13-Dec-18 10:17 33.926425 -118.438584 153 69ft 126kts
13-Dec-18 10:18 33.893687 -118.419910 152 66ft 135kts
13-Dec-18 10:19 33.859127 -118.404220 162 274ft 124kts
13-Dec-18 10:20 33.834825 -118.399631 214 1680ft 54kts
13-Dec-18 10:21 33.818490 -118.396810 145 2512ft 84kts
13-Dec-18 10:22 33.795384 -118.369977 131 2694ft 132kts
13-Dec-18 10:23 33.770718 -118.339140 124 2893ft 137kts
13-Dec-18 10:24 33.752153 -118.295664 92 2178ft 157kts
13-Dec-18 10:25 33.754436 -118.246781 73 1931ft 133kts
13-Dec-18 10:26 33.758397 -118.209746 88 2368ft 115kts
13-Dec-18 10:27 33.758099 -118.166431 90 1923ft 132kts
13-Dec-18 10:28 33.774995 -118.162090 313 1968ft 122kts
13-Dec-18 10:29 33.770241 -118.160292 118 2405ft 108kts
13-Dec-18 10:30 33.751432 -118.123283 120 2157ft 140kts
13-Dec-18 10:31 33.732526 -118.082213 120 1915ft 148kts
13-Dec-18 10:32 33.710501 -118.039008 115 1397ft 149kts
13-Dec-18 10:33 33.695937 -117.994038 98 1091ft 138kts
13-Dec-18 10:34 33.682952 -117.954688 88 1139ft 118kts
13-Dec-18 10:35 33.697542 -117.924801 103 1379ft 118kts
13-Dec-18 10:36 33.684590 -117.885484 111 921ft 129kts
13-Dec-18 10:37 33.669494 -117.869521 26 398ft 19kts
13-Dec-18 10:38 33.672115 -117.867254 90 71ft 2kts
13-Dec-18 10:39 33.672339 -117.866663 301 60ft 0kts
13-Dec-18 10:40 33.672339 -117.866663 298 60ft 0kts

Navigation Log

Ident Type
Flight plan parsing failed, navigation log unavailable